createdAt,value
2019-04-30T00:00:42.457Z,95.87
2019-04-30T00:03:19.433Z,96.10
2019-04-30T00:05:53.826Z,96.49
2019-04-30T00:08:25.844Z,96.21
2019-04-30T00:11:00.010Z,96.21
2019-04-30T00:13:33.085Z,96.59
2019-04-30T00:16:06.215Z,96.54
2019-04-30T00:18:40.853Z,96.49
2019-04-30T00:21:17.539Z,96.53
2019-04-30T00:23:48.881Z,96.65
2019-04-30T00:26:22.093Z,96.58
2019-04-30T00:28:55.398Z,96.53
2019-04-30T00:31:28.754Z,96.24
2019-04-30T00:34:01.619Z,96.88
2019-04-30T00:36:37.415Z,96.87
2019-04-30T00:39:13.294Z,96.55
2019-04-30T00:41:47.357Z,96.69
2019-04-30T00:44:19.854Z,96.69
2019-04-30T00:46:55.782Z,96.72
2019-04-30T00:49:28.274Z,96.94
2019-04-30T00:52:01.590Z,97.32
2019-04-30T00:54:35.190Z,97.32
2019-04-30T00:57:08.297Z,97.15
2019-04-30T00:59:44.607Z,97.13
2019-04-30T01:02:20.168Z,97.16
2019-04-30T01:04:51.079Z,97.29
2019-04-30T01:07:24.427Z,97.29
2019-04-30T01:09:57.398Z,97.26
2019-04-30T01:12:35.855Z,97.07
2019-04-30T01:15:06.514Z,97.07
2019-04-30T01:17:45.446Z,97.28
2019-04-30T01:20:19.331Z,97.30
2019-04-30T01:22:52.475Z,97.30
2019-04-30T01:25:25.820Z,97.15
2019-04-30T01:27:59.056Z,97.41
2019-04-30T01:30:32.089Z,97.70
2019-04-30T01:33:05.023Z,97.52
2019-04-30T01:35:40.559Z,97.45
2019-04-30T01:38:13.281Z,97.68
2019-04-30T01:40:47.522Z,97.68
2019-04-30T01:43:30.476Z,97.67
2019-04-30T01:45:56.261Z,97.73
2019-04-30T01:48:29.312Z,97.70
2019-04-30T01:51:02.281Z,97.48
2019-04-30T01:53:35.297Z,97.43
2019-04-30T01:56:09.138Z,97.64
2019-04-30T01:58:42.116Z,97.64
2019-04-30T02:01:15.118Z,97.54
2019-04-30T02:03:48.713Z,97.54
2019-04-30T02:06:21.979Z,97.40
2019-04-30T02:08:54.870Z,96.92
2019-04-30T02:11:28.883Z,96.92
2019-04-30T02:14:01.907Z,96.85
2019-04-30T02:16:34.828Z,96.95
2019-04-30T02:19:09.152Z,97.13
2019-04-30T02:21:42.195Z,96.91
2019-04-30T02:24:15.263Z,96.54
2019-04-30T02:26:48.553Z,96.54
2019-04-30T02:29:21.583Z,96.58
2019-04-30T02:31:54.524Z,96.58
2019-04-30T02:34:30.317Z,96.62
2019-04-30T02:37:02.596Z,96.74
2019-04-30T02:39:35.547Z,96.78
2019-04-30T02:42:13.317Z,95.90
2019-04-30T02:44:47.006Z,95.90
2019-04-30T02:47:21.661Z,95.75
2019-04-30T02:50:11.527Z,95.77
2019-04-30T02:52:33.209Z,95.77
2019-04-30T02:55:09.582Z,96.01
2019-04-30T02:57:42.511Z,95.66
2019-04-30T03:00:15.598Z,96.05
2019-04-30T03:02:50.561Z,96.03
2019-04-30T03:05:23.525Z,96.03
2019-04-30T03:07:56.678Z,96.75
2019-04-30T03:10:30.372Z,96.57
2019-04-30T03:13:03.380Z,96.75
2019-04-30T03:15:36.280Z,96.75
2019-04-30T03:18:09.995Z,96.84
2019-04-30T03:20:43.005Z,96.41
2019-04-30T03:23:15.895Z,96.25
2019-04-30T03:25:50.130Z,96.36
2019-04-30T03:28:23.235Z,96.36
2019-04-30T03:30:57.877Z,96.35
2019-04-30T03:33:32.494Z,96.38
2019-04-30T03:36:05.523Z,96.68
2019-04-30T03:38:39.641Z,96.58
2019-04-30T03:41:13.331Z,96.68
2019-04-30T03:43:46.598Z,96.69
2019-04-30T03:46:19.596Z,96.67
2019-04-30T03:48:52.765Z,96.99
2019-04-30T03:51:25.675Z,96.99
2019-04-30T03:53:59.569Z,97.06
2019-04-30T03:56:32.696Z,97.06
2019-04-30T03:59:05.650Z,96.29
2019-04-30T04:01:39.883Z,96.46
2019-04-30T04:04:12.847Z,96.49
2019-04-30T04:06:45.816Z,96.49
2019-04-30T04:09:22.060Z,96.05
2019-04-30T04:11:53.504Z,96.46
2019-04-30T04:14:26.411Z,96.46
2019-04-30T04:17:00.132Z,96.05
2019-04-30T04:19:33.129Z,96.08
2019-04-30T04:22:06.424Z,96.02
2019-04-30T04:24:40.175Z,95.71
2019-04-30T04:27:13.257Z,95.91
2019-04-30T04:29:50.583Z,96.07
2019-04-30T04:32:24.318Z,96.16
2019-04-30T04:34:59.918Z,96.35
2019-04-30T04:37:32.008Z,96.70
2019-04-30T04:40:05.417Z,96.70
2019-04-30T04:42:39.626Z,96.62
2019-04-30T04:45:12.961Z,96.45
2019-04-30T04:47:45.950Z,96.42
2019-04-30T04:50:20.156Z,96.41
2019-04-30T04:52:53.710Z,96.50
2019-04-30T04:55:26.619Z,96.27
2019-04-30T04:57:59.871Z,96.27
2019-04-30T05:00:33.214Z,96.58
2019-04-30T05:03:06.096Z,96.53
2019-04-30T05:05:39.818Z,96.75
2019-04-30T05:08:12.953Z,96.68
2019-04-30T05:10:46.360Z,96.57
2019-04-30T05:13:19.710Z,96.22
2019-04-30T05:15:52.783Z,95.84
2019-04-30T05:18:25.769Z,95.84
2019-04-30T05:20:59.137Z,95.44
2019-04-30T05:23:32.195Z,95.44
2019-04-30T05:26:05.215Z,95.18
2019-04-30T05:28:39.345Z,95.11
2019-04-30T05:31:12.482Z,95.18
2019-04-30T05:33:45.409Z,95.04
2019-04-30T05:36:19.169Z,94.88
2019-04-30T05:38:52.756Z,94.88
2019-04-30T05:41:25.732Z,94.68
2019-04-30T05:43:59.253Z,94.95
2019-04-30T05:46:32.552Z,94.67
2019-04-30T05:49:05.713Z,94.27
2019-04-30T05:51:38.923Z,94.31
2019-04-30T05:54:11.909Z,94.55
2019-04-30T05:56:44.958Z,94.55
2019-04-30T05:59:20.480Z,94.11
2019-04-30T06:01:53.152Z,93.92
2019-04-30T06:04:26.275Z,93.72
2019-04-30T06:06:59.603Z,93.72
2019-04-30T06:09:33.993Z,93.41
2019-04-30T06:12:11.157Z,93.35
2019-04-30T06:14:48.891Z,93.51
2019-04-30T06:17:19.581Z,93.16
2019-04-30T06:19:52.058Z,92.79
2019-04-30T06:22:25.623Z,92.70
2019-04-30T06:24:59.498Z,92.70
2019-04-30T06:27:32.581Z,92.26
2019-04-30T06:30:05.752Z,92.62
2019-04-30T06:32:39.498Z,92.25
2019-04-30T06:35:13.101Z,92.25
2019-04-30T06:37:46.414Z,91.81
2019-04-30T06:40:19.757Z,91.81
2019-04-30T06:42:52.852Z,91.19
2019-04-30T06:45:28.906Z,91.19
2019-04-30T06:48:03.930Z,91.65
2019-04-30T06:50:36.863Z,92.14
2019-04-30T06:53:09.835Z,91.86
2019-04-30T06:55:43.109Z,91.75
2019-04-30T06:58:16.036Z,91.23
2019-04-30T07:00:49.668Z,91.23
2019-04-30T07:03:22.865Z,90.81
2019-04-30T07:05:55.930Z,90.52
2019-04-30T07:08:37.341Z,90.24
2019-04-30T07:11:07.410Z,90.07
2019-04-30T07:13:39.496Z,90.29
2019-04-30T07:16:12.706Z,91.05
2019-04-30T07:18:45.714Z,91.29
2019-04-30T07:21:19.788Z,91.29
2019-04-30T07:23:53.615Z,91.25
2019-04-30T07:26:28.796Z,90.67
2019-04-30T07:29:02.528Z,90.63
2019-04-30T07:31:35.743Z,90.12
2019-04-30T07:34:09.240Z,90.32
2019-04-30T07:36:48.569Z,90.32
2019-04-30T07:39:19.089Z,89.98
2019-04-30T07:41:52.052Z,90.37
2019-04-30T07:44:33.717Z,88.01
2019-04-30T07:47:02.145Z,88.01
2019-04-30T07:49:46.903Z,88.09
2019-04-30T07:52:11.498Z,88.09
2019-04-30T07:54:44.184Z,88.08
2019-04-30T07:57:19.185Z,88.09
2019-04-30T07:59:51.922Z,87.20
2019-04-30T08:02:25.295Z,87.73
2019-04-30T08:04:59.894Z,87.66
2019-04-30T08:07:32.981Z,87.38
2019-04-30T08:10:06.389Z,87.02
2019-04-30T08:12:43.036Z,86.69
2019-04-30T08:15:14.294Z,86.21
2019-04-30T08:18:00.369Z,86.21
2019-04-30T08:20:22.132Z,85.13
2019-04-30T08:22:55.016Z,84.93
2019-04-30T08:25:29.060Z,84.93
2019-04-30T08:28:02.254Z,84.18
2019-04-30T08:30:35.275Z,84.22
2019-04-30T08:33:09.456Z,84.23
2019-04-30T08:35:42.719Z,84.23
2019-04-30T08:38:15.721Z,84.72
2019-04-30T08:40:56.178Z,85.45
2019-04-30T08:43:24.610Z,85.45
2019-04-30T08:45:59.508Z,85.23
2019-04-30T08:48:45.487Z,86.09
2019-04-30T08:51:09.263Z,86.09
2019-04-30T08:53:42.306Z,86.13
2019-04-30T08:56:15.242Z,85.24
2019-04-30T08:58:49.090Z,85.48
2019-04-30T09:01:22.290Z,85.48
2019-04-30T09:03:55.559Z,86.40
2019-04-30T09:06:29.345Z,85.69
2019-04-30T09:09:04.283Z,84.94
2019-04-30T09:11:50.034Z,84.94
2019-04-30T09:14:12.258Z,85.08
2019-04-30T09:16:45.985Z,84.93
2019-04-30T09:19:21.019Z,84.72
2019-04-30T09:21:53.806Z,84.68
2019-04-30T09:24:26.686Z,83.32
2019-04-30T09:26:59.638Z,82.75
2019-04-30T09:29:32.581Z,82.75
2019-04-30T09:32:05.695Z,81.45
2019-04-30T09:34:40.388Z,83.12
2019-04-30T09:37:13.733Z,83.12
2019-04-30T09:39:46.697Z,83.34
2019-04-30T09:42:19.820Z,83.58
2019-04-30T09:44:54.917Z,83.58
2019-04-30T09:47:29.434Z,83.81
2019-04-30T09:50:02.649Z,84.05
2019-04-30T09:52:36.398Z,83.95
2019-04-30T09:55:10.491Z,83.95
2019-04-30T09:57:43.603Z,83.24
2019-04-30T10:00:16.928Z,82.72
2019-04-30T10:02:50.021Z,82.72
2019-04-30T10:05:23.167Z,82.02
2019-04-30T10:07:56.163Z,81.47
2019-04-30T10:10:29.445Z,80.58
2019-04-30T10:13:02.477Z,80.86
2019-04-30T10:15:35.493Z,80.40
2019-04-30T10:18:08.648Z,80.22
2019-04-30T10:20:43.460Z,80.54
2019-04-30T10:23:16.431Z,80.54
2019-04-30T10:25:49.841Z,81.22
2019-04-30T10:28:23.435Z,81.57
2019-04-30T10:30:56.700Z,81.28
2019-04-30T10:33:29.779Z,79.92
2019-04-30T10:36:02.813Z,79.92
2019-04-30T10:38:35.884Z,79.52
2019-04-30T10:41:09.059Z,79.26
2019-04-30T10:43:42.204Z,79.78
2019-04-30T10:46:15.206Z,79.50
2019-04-30T10:48:48.508Z,77.50
2019-04-30T10:51:21.469Z,76.28
2019-04-30T10:53:54.447Z,76.28
2019-04-30T10:56:29.090Z,76.15
2019-04-30T10:59:02.268Z,74.80
2019-04-30T11:01:35.722Z,75.42
2019-04-30T11:04:09.050Z,75.19
2019-04-30T11:06:42.039Z,75.88
2019-04-30T11:09:15.155Z,75.02
2019-04-30T11:11:49.720Z,76.82
2019-04-30T11:14:23.017Z,75.42
2019-04-30T11:16:56.156Z,75.42
2019-04-30T11:19:29.612Z,75.86
2019-04-30T11:22:03.159Z,75.51
2019-04-30T11:24:44.978Z,76.06
2019-04-30T11:27:12.046Z,74.80
2019-04-30T11:29:45.769Z,73.61
2019-04-30T11:32:19.390Z,75.87
2019-04-30T11:34:52.648Z,76.42
2019-04-30T11:37:25.633Z,76.42
2019-04-30T11:39:58.822Z,74.37
2019-04-30T11:42:32.354Z,74.04
2019-04-30T11:45:08.464Z,72.28
2019-04-30T11:47:52.625Z,71.86
2019-04-30T11:50:16.334Z,71.76
2019-04-30T11:52:49.406Z,71.76
2019-04-30T11:55:23.694Z,69.75
2019-04-30T11:57:56.828Z,69.75
2019-04-30T12:00:29.791Z,67.86
2019-04-30T12:03:02.758Z,69.42
2019-04-30T12:05:35.757Z,67.76
2019-04-30T12:08:09.547Z,65.71
2019-04-30T12:10:42.668Z,64.54
2019-04-30T12:13:15.550Z,52.05
2019-04-30T12:15:50.171Z,53.21
2019-04-30T12:18:23.511Z,52.11
2019-04-30T12:20:56.492Z,51.49
2019-04-30T12:23:29.533Z,51.49
2019-04-30T12:26:03.115Z,52.15
2019-04-30T12:28:36.065Z,56.62
2019-04-30T12:31:09.849Z,56.62
2019-04-30T12:33:42.857Z,54.56
2019-04-30T12:36:15.817Z,54.56
2019-04-30T12:38:48.810Z,53.71
2019-04-30T12:41:21.708Z,47.26
2019-04-30T12:43:54.545Z,47.26
2019-04-30T12:46:28.925Z,47.93
2019-04-30T12:49:01.846Z,50.65
2019-04-30T12:51:45.246Z,54.57
2019-04-30T12:54:09.499Z,56.96
2019-04-30T12:56:42.552Z,58.11
2019-04-30T12:59:15.388Z,60.00
2019-04-30T13:01:49.572Z,57.61
2019-04-30T13:04:22.528Z,57.61
2019-04-30T13:06:55.808Z,51.08
2019-04-30T13:09:30.060Z,49.31
2019-04-30T13:12:03.937Z,51.08
2019-04-30T13:14:51.029Z,55.55
2019-04-30T13:17:11.635Z,55.55
2019-04-30T13:19:44.472Z,57.00
2019-04-30T13:22:18.940Z,56.11
2019-04-30T13:24:51.850Z,50.42
2019-04-30T13:27:24.730Z,41.89
2019-04-30T13:29:57.563Z,41.89
2019-04-30T13:32:32.757Z,46.13
2019-04-30T13:35:05.158Z,46.13
2019-04-30T13:37:38.956Z,54.00
2019-04-30T13:40:12.609Z,54.00
2019-04-30T13:42:45.458Z,53.80
2019-04-30T13:45:20.697Z,43.37
2019-04-30T13:47:53.243Z,43.37
2019-04-30T13:50:26.224Z,43.37
2019-04-30T13:52:59.067Z,46.42
2019-04-30T13:55:42.841Z,50.12
2019-04-30T13:58:06.546Z,51.65
2019-04-30T14:00:39.811Z,52.96
2019-04-30T14:03:12.678Z,50.71
2019-04-30T14:05:45.997Z,50.71
2019-04-30T14:08:19.998Z,51.96
2019-04-30T14:10:53.141Z,48.02
2019-04-30T14:13:26.064Z,47.09
2019-04-30T14:15:58.898Z,46.67
2019-04-30T14:18:34.168Z,49.96
2019-04-30T14:21:06.411Z,49.96
2019-04-30T14:23:39.743Z,52.33
2019-04-30T14:26:12.871Z,50.52
2019-04-30T14:28:45.728Z,50.52
2019-04-30T14:31:20.710Z,51.12
2019-04-30T14:33:53.212Z,48.01
2019-04-30T14:36:26.041Z,48.01
2019-04-30T14:39:13.132Z,49.39
2019-04-30T14:41:34.021Z,51.03
2019-04-30T14:44:07.740Z,48.19
2019-04-30T14:46:41.334Z,48.19
2019-04-30T14:49:15.992Z,49.38
2019-04-30T14:51:51.366Z,52.20
2019-04-30T14:54:24.328Z,51.41
2019-04-30T14:56:59.279Z,55.30
2019-04-30T14:59:32.424Z,54.56
2019-04-30T15:02:05.465Z,54.02
2019-04-30T15:04:39.291Z,54.17
2019-04-30T15:07:12.220Z,54.13
2019-04-30T15:09:45.131Z,54.13
2019-04-30T15:12:18.429Z,56.00
2019-04-30T15:14:51.573Z,55.83
2019-04-30T15:17:24.480Z,57.26
2019-04-30T15:19:58.746Z,57.26
2019-04-30T15:22:32.069Z,60.44
2019-04-30T15:25:05.476Z,60.44
2019-04-30T15:27:45.075Z,61.92
2019-04-30T15:30:21.453Z,62.31
2019-04-30T15:32:49.446Z,62.31
2019-04-30T15:35:22.475Z,63.13
2019-04-30T15:37:55.304Z,63.13
2019-04-30T15:40:28.855Z,62.60
2019-04-30T15:43:02.458Z,64.29
2019-04-30T15:45:35.337Z,65.23
2019-04-30T15:48:08.621Z,65.23
2019-04-30T15:50:41.657Z,65.98
2019-04-30T15:53:14.584Z,66.77
2019-04-30T15:55:47.440Z,66.77
2019-04-30T15:58:20.377Z,70.28
2019-04-30T16:00:53.204Z,70.28
2019-04-30T16:03:26.144Z,69.74
2019-04-30T16:05:58.985Z,69.96
2019-04-30T16:08:31.901Z,68.31
2019-04-30T16:11:07.239Z,69.32
2019-04-30T16:13:39.539Z,71.58
2019-04-30T16:16:13.309Z,70.17
2019-04-30T16:18:46.180Z,70.17
2019-04-30T16:21:19.423Z,72.52
2019-04-30T16:23:52.646Z,72.52
2019-04-30T16:26:25.560Z,73.14
2019-04-30T16:28:58.763Z,73.14
2019-04-30T16:31:32.301Z,72.93
2019-04-30T16:34:05.404Z,73.61
2019-04-30T16:36:39.028Z,73.48
2019-04-30T16:39:12.128Z,74.32
2019-04-30T16:41:45.156Z,74.32
2019-04-30T16:44:19.167Z,74.46
2019-04-30T16:46:52.172Z,74.90
2019-04-30T16:49:25.386Z,74.90
2019-04-30T16:52:01.263Z,75.22
2019-04-30T16:54:32.920Z,74.00
2019-04-30T16:57:07.012Z,74.50
2019-04-30T16:59:40.133Z,74.50
2019-04-30T17:02:13.231Z,75.62
2019-04-30T17:04:46.183Z,75.58
2019-04-30T17:07:19.533Z,75.56
2019-04-30T17:09:52.569Z,77.33
2019-04-30T17:12:25.493Z,77.33
2019-04-30T17:14:58.716Z,77.86
2019-04-30T17:17:31.583Z,77.89
2019-04-30T17:20:05.321Z,77.45
2019-04-30T17:22:39.471Z,77.06
2019-04-30T17:25:13.058Z,76.97
2019-04-30T17:27:46.186Z,77.75
2019-04-30T17:30:19.466Z,77.65
2019-04-30T17:32:52.383Z,77.65
2019-04-30T17:35:25.357Z,78.54
2019-04-30T17:37:58.315Z,78.70
2019-04-30T17:40:31.295Z,78.54
2019-04-30T17:43:04.459Z,78.54
2019-04-30T17:45:39.166Z,78.90
2019-04-30T17:48:12.350Z,78.64
2019-04-30T17:50:45.325Z,79.76
2019-04-30T17:53:19.058Z,78.79
2019-04-30T17:55:52.109Z,79.10
2019-04-30T17:58:25.100Z,79.88
2019-04-30T18:00:59.787Z,79.54
2019-04-30T18:03:33.123Z,80.18
2019-04-30T18:06:06.030Z,80.20
2019-04-30T18:08:39.225Z,79.88
2019-04-30T18:11:12.200Z,80.29
2019-04-30T18:13:45.226Z,80.32
2019-04-30T18:16:18.762Z,80.32
2019-04-30T18:18:51.771Z,79.96
2019-04-30T18:21:24.752Z,79.94
2019-04-30T18:23:58.549Z,79.94
2019-04-30T18:26:31.593Z,79.65
2019-04-30T18:29:04.603Z,79.93
2019-04-30T18:31:37.535Z,80.62
2019-04-30T18:34:10.595Z,81.06
2019-04-30T18:36:43.645Z,80.91
2019-04-30T18:39:16.707Z,80.57
2019-04-30T18:41:49.634Z,81.15
2019-04-30T18:44:22.657Z,81.15
2019-04-30T18:46:55.636Z,81.13
2019-04-30T18:49:28.765Z,80.66
2019-04-30T18:52:01.872Z,81.21
2019-04-30T18:54:35.011Z,81.99
2019-04-30T18:57:08.150Z,81.99
2019-04-30T18:59:41.069Z,82.29
2019-04-30T19:02:14.364Z,81.89
2019-04-30T19:04:47.311Z,83.13
2019-04-30T19:07:20.273Z,83.13
2019-04-30T19:09:53.277Z,81.63
2019-04-30T19:12:26.225Z,82.26
2019-04-30T19:14:59.145Z,82.33
2019-04-30T19:17:31.997Z,82.80
2019-04-30T19:20:05.433Z,82.70
2019-04-30T19:22:39.707Z,82.64
2019-04-30T19:25:12.886Z,82.64
2019-04-30T19:27:45.809Z,83.10
2019-04-30T19:30:19.405Z,82.82
2019-04-30T19:32:52.417Z,82.92
2019-04-30T19:35:25.769Z,82.92
2019-04-30T19:37:59.296Z,83.21
2019-04-30T19:40:32.299Z,83.21
2019-04-30T19:43:05.253Z,83.02
2019-04-30T19:45:38.337Z,84.12
2019-04-30T19:48:11.516Z,84.02
2019-04-30T19:50:44.695Z,84.02
2019-04-30T19:53:21.805Z,84.53
2019-04-30T19:55:52.523Z,84.14
2019-04-30T19:58:37.940Z,84.28
2019-04-30T20:01:00.380Z,84.04
2019-04-30T20:03:33.338Z,83.79
2019-04-30T20:06:06.295Z,83.44
2019-04-30T20:08:39.177Z,83.44
2019-04-30T20:11:12.142Z,84.00
2019-04-30T20:13:44.991Z,84.65
2019-04-30T20:16:19.581Z,84.65
2019-04-30T20:18:52.534Z,84.87
2019-04-30T20:21:28.898Z,84.77
2019-04-30T20:24:00.041Z,85.12
2019-04-30T20:26:32.949Z,84.64
2019-04-30T20:29:05.830Z,84.64
2019-04-30T20:31:38.750Z,84.54
2019-04-30T20:34:11.626Z,84.71
2019-04-30T20:36:44.803Z,84.96
2019-04-30T20:39:17.676Z,84.94
2019-04-30T20:41:50.566Z,85.48
2019-04-30T20:44:23.533Z,85.95
2019-04-30T20:46:56.688Z,85.89
2019-04-30T20:49:29.581Z,85.89
2019-04-30T20:52:02.482Z,85.78
2019-04-30T20:54:35.419Z,85.78
2019-04-30T20:57:08.818Z,85.92
2019-04-30T20:59:41.816Z,85.53
2019-04-30T21:02:14.756Z,85.35
2019-04-30T21:04:47.853Z,85.58
2019-04-30T21:07:20.860Z,85.84
2019-04-30T21:09:53.922Z,85.81
2019-04-30T21:12:28.817Z,85.81
2019-04-30T21:15:01.757Z,85.46
2019-04-30T21:17:34.784Z,85.68
2019-04-30T21:20:09.696Z,85.81
2019-04-30T21:22:42.802Z,85.97
2019-04-30T21:25:15.851Z,85.50
2019-04-30T21:27:50.012Z,85.73
2019-04-30T21:30:23.144Z,86.43
2019-04-30T21:32:56.338Z,85.54
2019-04-30T21:35:29.310Z,85.54
2019-04-30T21:38:02.186Z,85.35
2019-04-30T21:40:36.761Z,85.55
2019-04-30T21:43:09.709Z,85.74
2019-04-30T21:45:42.725Z,86.01
2019-04-30T21:48:15.610Z,86.05
2019-04-30T21:50:49.757Z,86.05
2019-04-30T21:53:23.086Z,86.16
2019-04-30T21:55:55.960Z,87.09
2019-04-30T21:58:29.267Z,87.09
2019-04-30T22:01:09.923Z,86.82
2019-04-30T22:03:42.884Z,87.15
2019-04-30T22:06:15.896Z,87.11
2019-04-30T22:08:49.043Z,87.31
2019-04-30T22:11:22.071Z,87.31
2019-04-30T22:13:54.998Z,87.54
2019-04-30T22:16:29.756Z,86.73
2019-04-30T22:19:02.769Z,86.74
2019-04-30T22:21:35.810Z,87.23
2019-04-30T22:24:08.705Z,87.40
2019-04-30T22:26:41.595Z,87.45
2019-04-30T22:29:14.533Z,87.53
2019-04-30T22:31:49.374Z,87.92
2019-04-30T22:34:22.142Z,87.67
2019-04-30T22:36:55.076Z,87.31
2019-04-30T22:39:29.943Z,87.02
2019-04-30T22:42:33.918Z,86.95
2019-04-30T22:45:10.061Z,86.63
2019-04-30T22:47:42.985Z,87.44
2019-04-30T22:50:16.018Z,87.44
2019-04-30T22:52:48.937Z,87.45
2019-04-30T22:55:22.254Z,87.22
2019-04-30T22:57:55.115Z,87.50
2019-04-30T23:00:28.283Z,87.39
2019-04-30T23:03:01.458Z,87.36
2019-04-30T23:05:34.423Z,87.07
2019-04-30T23:08:07.774Z,86.68
2019-04-30T23:10:41.003Z,87.02
2019-04-30T23:13:14.157Z,87.37
2019-04-30T23:15:49.267Z,86.97
2019-04-30T23:18:22.243Z,87.18
2019-04-30T23:20:55.166Z,87.21
2019-04-30T23:23:28.375Z,86.98
2019-04-30T23:26:01.357Z,86.78
2019-04-30T23:28:34.500Z,86.78
2019-04-30T23:31:07.394Z,86.83
2019-04-30T23:33:40.598Z,86.92
2019-04-30T23:36:13.522Z,87.57
2019-04-30T23:38:46.821Z,87.66
2019-04-30T23:41:19.780Z,87.36
2019-04-30T23:43:54.982Z,87.23
2019-04-30T23:46:27.276Z,87.52
2019-04-30T23:49:00.223Z,87.59
2019-04-30T23:51:33.141Z,87.28
2019-04-30T23:54:06.123Z,86.61
2019-04-30T23:56:39.052Z,86.98
2019-04-30T23:59:11.939Z,87.09
